createdAt,value
2019-03-25T00:02:21.849Z,25.13
2019-03-25T00:05:00.290Z,26.20
2019-03-25T00:07:30.958Z,25.57
2019-03-25T00:10:03.671Z,25.27
2019-03-25T00:12:34.228Z,25.57
2019-03-25T00:15:05.320Z,23.03
2019-03-25T00:17:35.661Z,23.00
2019-03-25T00:20:06.410Z,23.00
2019-03-25T00:22:36.650Z,22.10
2019-03-25T00:25:10.537Z,21.37
2019-03-25T00:27:43.480Z,19.63
2019-03-25T00:30:14.711Z,19.57
2019-03-25T00:32:45.929Z,18.63
2019-03-25T00:35:16.348Z,18.10
2019-03-25T00:37:48.426Z,18.60
2019-03-25T00:40:21.845Z,17.60
2019-03-25T00:42:55.270Z,16.83
2019-03-25T00:45:25.628Z,17.23
2019-03-25T00:47:57.020Z,17.20
2019-03-25T00:50:32.208Z,16.10
2019-03-25T00:53:04.936Z,14.87
2019-03-25T00:55:39.929Z,11.97
2019-03-25T00:58:10.918Z,14.20
2019-03-25T01:00:43.822Z,13.17
2019-03-25T01:03:14.217Z,10.90
2019-03-25T01:05:49.709Z,10.13
2019-03-25T01:08:23.285Z,9.50
2019-03-25T01:10:53.643Z,11.37
2019-03-25T01:13:23.973Z,8.30
2019-03-25T01:15:54.700Z,9.50
2019-03-25T01:18:28.046Z,10.73
2019-03-25T01:20:58.369Z,10.83
2019-03-25T01:23:29.127Z,10.83
2019-03-25T01:26:05.423Z,11.37
2019-03-25T01:28:42.335Z,11.47
2019-03-25T01:31:12.546Z,12.37
2019-03-25T01:33:42.786Z,11.97
2019-03-25T01:36:13.789Z,11.60
2019-03-25T01:38:44.731Z,11.60
2019-03-25T01:41:19.606Z,10.93
2019-03-25T01:43:53.442Z,10.80
2019-03-25T01:46:22.692Z,10.40
2019-03-25T01:48:53.327Z,12.43
2019-03-25T01:51:24.264Z,9.73
2019-03-25T01:53:54.968Z,10.77
2019-03-25T01:56:25.493Z,10.17
2019-03-25T01:58:56.695Z,8.60
2019-03-25T02:01:27.139Z,8.00
2019-03-25T02:04:08.630Z,7.90
2019-03-25T02:06:43.428Z,5.80
2019-03-25T02:09:14.356Z,6.10
2019-03-25T02:11:46.676Z,5.90
2019-03-25T02:14:16.889Z,6.07
2019-03-25T02:16:47.142Z,4.20
2019-03-25T02:19:17.411Z,4.43
2019-03-25T02:21:48.024Z,4.17
2019-03-25T02:24:18.985Z,4.23
2019-03-25T02:26:49.602Z,5.00
2019-03-25T02:29:20.173Z,4.30
2019-03-25T02:31:50.707Z,4.83
2019-03-25T02:34:21.220Z,5.23
2019-03-25T02:36:52.104Z,4.73
2019-03-25T02:39:22.755Z,4.50
2019-03-25T02:41:57.964Z,5.20
2019-03-25T02:44:28.652Z,4.80
2019-03-25T02:46:59.040Z,5.67
2019-03-25T02:49:29.509Z,4.80
2019-03-25T02:54:40.640Z,5.87
2019-03-25T02:57:11.185Z,5.77
2019-03-25T02:59:47.848Z,6.60
2019-03-25T03:02:19.633Z,5.17
2019-03-25T03:04:50.417Z,5.20
2019-03-25T03:23:26.238Z,4.80
2019-03-25T03:25:58.180Z,4.50
2019-03-25T03:28:29.363Z,3.67
2019-03-25T03:31:02.739Z,4.70
2019-03-25T03:33:34.971Z,4.53
2019-03-25T03:36:06.666Z,4.30
2019-03-25T03:38:39.386Z,3.63
2019-03-25T03:41:10.381Z,3.53
2019-03-25T03:43:49.782Z,4.27
2019-03-25T03:46:22.796Z,4.20
2019-03-25T03:48:53.741Z,4.77
2019-03-25T03:51:25.108Z,3.90
2019-03-25T03:53:56.245Z,4.50
2019-03-25T03:56:31.185Z,5.23
2019-03-25T03:59:04.428Z,4.37
2019-03-25T04:04:14.889Z,6.07
2019-03-25T04:06:46.885Z,5.33
2019-03-25T04:09:17.838Z,5.30
2019-03-25T04:11:48.830Z,5.27
2019-03-25T04:14:19.785Z,5.90
2019-03-25T04:16:49.582Z,5.80
2019-03-25T04:19:21.222Z,6.10
2019-03-25T04:21:51.722Z,5.07
2019-03-25T04:24:22.240Z,5.90
2019-03-25T04:26:52.786Z,5.13
2019-03-25T04:29:23.154Z,6.00
2019-03-25T04:31:54.221Z,5.17
2019-03-25T04:34:25.267Z,4.40
2019-03-25T04:36:56.956Z,5.20
2019-03-25T04:39:27.681Z,5.17
2019-03-25T04:42:16.697Z,5.60
2019-03-25T04:44:47.583Z,5.63
2019-03-25T04:47:18.997Z,4.97
2019-03-25T04:49:49.257Z,5.40
2019-03-25T04:52:27.208Z,5.23
2019-03-25T04:55:00.571Z,6.20
2019-03-25T04:57:32.812Z,5.07
2019-03-25T05:00:03.979Z,5.93
2019-03-25T05:02:40.349Z,6.53
2019-03-25T05:05:11.914Z,6.30
2019-03-25T05:07:45.864Z,5.90
2019-03-25T05:10:17.319Z,6.03
2019-03-25T05:12:49.990Z,5.20
2019-03-25T05:15:20.695Z,5.37
2019-03-25T05:17:50.944Z,5.07
2019-03-25T05:20:21.125Z,6.00
2019-03-25T05:22:51.869Z,5.90
2019-03-25T05:25:22.905Z,5.23
2019-03-25T05:27:53.172Z,6.20
2019-03-25T05:30:23.447Z,6.40
2019-03-25T05:32:54.512Z,6.20
2019-03-25T05:35:26.118Z,6.00
2019-03-25T05:37:57.096Z,7.23
2019-03-25T05:40:27.848Z,6.10
2019-03-25T05:45:52.176Z,5.70
2019-03-25T05:48:23.240Z,5.57
2019-03-25T05:51:18.705Z,6.00
2019-03-25T05:53:51.319Z,6.07
2019-03-25T05:56:23.010Z,6.10
2019-03-25T05:58:58.419Z,5.27
2019-03-25T06:01:33.233Z,7.70
2019-03-25T06:04:08.352Z,6.15
2019-03-25T06:06:41.676Z,6.13
2019-03-25T06:09:13.464Z,6.60
2019-03-25T06:11:44.123Z,6.83
2019-03-25T06:14:18.426Z,7.23
2019-03-25T06:16:49.597Z,7.90
2019-03-25T06:19:21.172Z,7.43
2019-03-25T06:21:51.726Z,6.67
2019-03-25T06:24:23.448Z,7.80
2019-03-25T06:26:55.234Z,7.40
2019-03-25T06:29:25.838Z,7.43
2019-03-25T06:31:56.372Z,7.63
2019-03-25T06:34:26.660Z,7.67
2019-03-25T06:36:56.492Z,6.90
2019-03-25T06:39:27.133Z,8.40
2019-03-25T06:41:57.300Z,8.80
2019-03-25T06:44:27.500Z,8.10
2019-03-25T06:46:57.403Z,8.57
2019-03-25T06:49:27.803Z,7.90
2019-03-25T06:51:57.866Z,8.33
2019-03-25T06:54:29.515Z,9.40
2019-03-25T06:56:59.427Z,8.77
2019-03-25T06:59:30.002Z,8.57
2019-03-25T07:02:05.279Z,7.90
2019-03-25T07:04:39.028Z,8.43
2019-03-25T07:07:09.260Z,8.20
2019-03-25T07:09:39.234Z,8.57
2019-03-25T07:12:10.194Z,8.50
2019-03-25T07:18:33.548Z,8.57
2019-03-25T07:23:05.306Z,9.57
2019-03-25T07:25:22.537Z,7.27
2019-03-25T07:28:26.147Z,8.37
2019-03-25T07:31:12.520Z,8.97
2019-03-25T07:34:10.821Z,8.17
2019-03-25T07:49:02.563Z,8.50
2019-03-25T07:51:35.578Z,7.80
2019-03-25T07:57:18.597Z,8.40
2019-03-25T07:59:58.063Z,7.17
2019-03-25T08:02:36.350Z,7.53
2019-03-25T08:05:07.317Z,8.10
2019-03-25T08:07:39.324Z,7.23
2019-03-25T08:23:26.634Z,6.57
2019-03-25T08:25:58.354Z,6.70
2019-03-25T08:28:28.848Z,5.97
2019-03-25T08:30:59.847Z,6.97
2019-03-25T08:33:29.996Z,7.13
2019-03-25T08:36:00.207Z,5.93
2019-03-25T08:38:30.685Z,6.03
2019-03-25T08:41:02.362Z,5.83
2019-03-25T08:43:33.244Z,5.70
2019-03-25T08:46:03.529Z,4.40
2019-03-25T08:48:34.215Z,5.07
2019-03-25T08:51:04.237Z,5.80
2019-03-25T08:53:34.207Z,4.40
2019-03-25T08:56:05.129Z,5.33
2019-03-25T08:58:35.167Z,5.10
2019-03-25T09:01:06.279Z,5.07
2019-03-25T09:03:36.631Z,4.63
2019-03-25T09:06:07.013Z,4.00
2019-03-25T09:08:37.595Z,4.47
2019-03-25T09:11:08.081Z,3.30
2019-03-25T09:13:38.808Z,3.00
2019-03-25T09:16:09.317Z,3.27
2019-03-25T09:18:39.563Z,3.53
2019-03-25T09:21:17.499Z,3.17
2019-03-25T09:23:47.859Z,2.43
2019-03-25T09:26:18.924Z,3.07
2019-03-25T09:28:49.934Z,4.03
2019-03-25T09:31:22.757Z,3.57
2019-03-25T09:33:53.313Z,3.30
2019-03-25T09:36:24.232Z,4.27
2019-03-25T09:38:54.947Z,5.07
2019-03-25T09:41:25.481Z,4.10
2019-03-25T09:43:55.687Z,3.60
2019-03-25T09:46:33.035Z,4.23
2019-03-25T09:49:03.776Z,4.00
2019-03-25T09:51:34.438Z,4.00
2019-03-25T09:54:05.476Z,3.90
2019-03-25T09:56:35.732Z,4.13
2019-03-25T09:59:06.674Z,4.07
2019-03-25T10:01:38.531Z,3.70
2019-03-25T10:04:15.451Z,4.40
2019-03-25T10:06:46.181Z,3.73
2019-03-25T10:09:16.276Z,4.43
2019-03-25T10:11:47.124Z,3.40
2019-03-25T10:14:17.891Z,3.60
2019-03-25T10:16:48.363Z,3.27
2019-03-25T10:19:18.889Z,3.80
2019-03-25T10:21:49.059Z,3.97
2019-03-25T10:24:27.614Z,4.70
2019-03-25T10:26:52.930Z,4.03
2019-03-25T10:29:23.418Z,4.40
2019-03-25T10:44:51.260Z,4.53
2019-03-25T10:47:32.666Z,3.77
2019-03-25T10:50:33.592Z,4.00
2019-03-25T11:14:02.357Z,4.87
2019-03-25T11:16:33.693Z,4.90
2019-03-25T11:19:17.741Z,6.13
2019-03-25T11:22:04.208Z,5.40
2019-03-25T11:27:19.253Z,5.50
2019-03-25T11:30:08.462Z,5.30
2019-03-25T11:33:11.469Z,4.90
2019-03-25T11:43:42.619Z,5.30
2019-03-25T11:46:17.756Z,4.93
2019-03-25T11:49:44.545Z,4.33
2019-03-25T11:52:32.744Z,5.30
2019-03-25T11:55:08.280Z,4.50
2019-03-25T11:57:38.651Z,5.27
2019-03-25T12:00:09.479Z,5.10
2019-03-25T12:02:39.667Z,5.70
2019-03-25T12:05:09.840Z,5.10
2019-03-25T12:07:40.292Z,4.70
2019-03-25T12:10:10.761Z,4.73
2019-03-25T12:12:41.208Z,4.90
2019-03-25T12:15:13.075Z,4.97
2019-03-25T12:17:43.535Z,4.73
2019-03-25T12:20:14.464Z,4.70
2019-03-25T12:22:44.773Z,4.50
2019-03-25T12:25:15.784Z,4.20
2019-03-25T12:27:46.023Z,3.97
2019-03-25T12:30:17.219Z,4.30
2019-03-25T12:32:47.781Z,4.50
2019-03-25T12:35:20.115Z,4.08
2019-03-25T12:37:50.628Z,3.17
2019-03-25T12:40:21.147Z,4.27
2019-03-25T12:42:51.993Z,3.60
2019-03-25T12:45:22.453Z,3.73
2019-03-25T12:47:52.815Z,4.27
2019-03-25T12:50:22.759Z,3.33
2019-03-25T12:52:53.022Z,3.67
2019-03-25T12:55:22.987Z,3.50
2019-03-25T12:57:52.814Z,3.50
2019-03-25T13:00:42.942Z,3.50
2019-03-25T13:03:13.229Z,3.60
2019-03-25T13:05:43.604Z,3.83
2019-03-25T13:08:13.675Z,3.03
2019-03-25T13:10:44.384Z,3.77
2019-03-25T13:13:14.864Z,3.70
2019-03-25T13:15:48.267Z,3.60
2019-03-25T13:18:29.643Z,3.50
2019-03-25T13:21:00.525Z,3.83
2019-03-25T13:23:30.713Z,3.67
2019-03-25T13:26:00.618Z,3.50
2019-03-25T13:28:36.982Z,3.47
2019-03-25T13:31:07.250Z,3.23
2019-03-25T13:33:37.710Z,3.40
2019-03-25T13:36:07.953Z,3.23
2019-03-25T13:38:37.887Z,2.70
2019-03-25T13:41:08.031Z,2.90
2019-03-25T13:43:37.789Z,3.10
2019-03-25T13:46:07.961Z,2.60
2019-03-25T13:48:37.892Z,2.20
2019-03-25T13:51:07.836Z,2.60
2019-03-25T13:53:38.143Z,2.33
2019-03-25T13:56:08.063Z,2.30
2019-03-25T13:58:38.245Z,2.53
2019-03-25T14:01:08.417Z,1.90
2019-03-25T14:03:39.806Z,2.23
2019-03-25T14:06:09.923Z,2.47
2019-03-25T14:08:40.985Z,2.57
2019-03-25T14:11:11.032Z,2.20
2019-03-25T14:13:49.066Z,2.10
2019-03-25T14:16:13.422Z,2.50
2019-03-25T14:18:43.700Z,2.00
2019-03-25T14:21:13.628Z,2.90
2019-03-25T14:23:45.080Z,2.53
2019-03-25T14:26:16.368Z,2.87
2019-03-25T14:28:47.092Z,2.23
2019-03-25T14:31:17.239Z,2.33
2019-03-25T14:33:47.499Z,2.40
2019-03-25T14:36:17.810Z,2.60
2019-03-25T14:38:48.481Z,2.00
2019-03-25T14:41:20.281Z,1.80
2019-03-25T14:43:51.408Z,2.40
2019-03-25T14:46:21.859Z,3.00
2019-03-25T14:48:51.880Z,3.10
2019-03-25T14:51:22.366Z,2.60
2019-03-25T14:53:52.877Z,2.17
2019-03-25T14:56:24.328Z,2.20
2019-03-25T14:58:55.305Z,2.10
2019-03-25T15:01:25.462Z,2.03
2019-03-25T15:03:56.504Z,2.10
2019-03-25T15:06:28.757Z,2.20
2019-03-25T15:08:59.546Z,2.00
2019-03-25T15:11:30.496Z,1.97
2019-03-25T15:14:02.239Z,2.20
2019-03-25T15:16:32.719Z,2.30
2019-03-25T15:19:03.376Z,2.07
2019-03-25T15:21:33.851Z,2.10
2019-03-25T15:24:03.758Z,2.00
2019-03-25T15:26:34.510Z,2.10
2019-03-25T15:29:05.900Z,2.53
2019-03-25T15:31:36.650Z,2.20
2019-03-25T15:34:07.016Z,2.20
2019-03-25T15:36:37.384Z,2.70
2019-03-25T15:39:08.986Z,1.93
2019-03-25T15:41:39.152Z,1.77
2019-03-25T15:44:09.263Z,1.60
2019-03-25T15:46:39.606Z,1.90
2019-03-25T15:49:09.986Z,1.40
2019-03-25T15:51:40.303Z,1.60
2019-03-25T15:54:11.316Z,1.50
2019-03-25T15:56:42.949Z,1.23
2019-03-25T15:59:13.695Z,1.93
2019-03-25T16:01:43.641Z,1.40
2019-03-25T16:04:13.861Z,1.20
2019-03-25T16:06:46.553Z,1.43
2019-03-25T16:09:17.948Z,1.60
2019-03-25T16:11:50.129Z,1.30
2019-03-25T16:14:20.247Z,1.43
2019-03-25T16:16:53.932Z,1.50
2019-03-25T16:19:26.162Z,4.20
2019-03-25T16:21:56.926Z,1.70
2019-03-25T16:24:27.081Z,2.10
2019-03-25T16:26:58.253Z,1.70
2019-03-25T16:29:28.946Z,1.93
2019-03-25T16:31:59.317Z,1.40
2019-03-25T16:34:29.372Z,1.80
2019-03-25T16:36:59.529Z,1.57
2019-03-25T16:39:29.781Z,1.60
2019-03-25T16:42:00.260Z,1.57
2019-03-25T16:44:30.736Z,1.47
2019-03-25T16:47:01.247Z,1.53
2019-03-25T16:49:32.019Z,1.33
2019-03-25T16:52:05.358Z,1.10
2019-03-25T16:54:47.553Z,1.20
2019-03-25T16:57:18.031Z,1.50
2019-03-25T16:59:50.207Z,1.10
2019-03-25T17:02:22.343Z,1.40
2019-03-25T17:04:52.744Z,1.20
2019-03-25T17:07:23.842Z,1.10
2019-03-25T17:09:54.455Z,1.57
2019-03-25T17:12:24.626Z,1.67
2019-03-25T17:14:54.899Z,1.90
2019-03-25T17:17:25.761Z,1.10
2019-03-25T17:19:55.913Z,1.93
2019-03-25T17:22:26.251Z,1.50
2019-03-25T17:24:56.112Z,1.20
2019-03-25T17:27:26.835Z,1.60
2019-03-25T17:29:58.315Z,1.30
2019-03-25T17:33:20.269Z,1.30
2019-03-25T17:35:38.530Z,1.30
2019-03-25T17:38:09.414Z,1.20
2019-03-25T17:55:09.199Z,1.50
2019-03-25T17:57:46.058Z,2.83
2019-03-25T18:00:23.513Z,2.40
2019-03-25T18:02:56.007Z,2.10
2019-03-25T18:05:28.656Z,7.67
2019-03-25T18:08:00.357Z,3.43
2019-03-25T18:10:33.627Z,1.87
2019-03-25T18:13:21.713Z,2.70
2019-03-25T18:16:07.132Z,2.50
2019-03-25T18:22:08.595Z,2.20
2019-03-25T18:24:48.488Z,1.63
2019-03-25T18:31:15.742Z,2.57
2019-03-25T18:33:47.493Z,2.10
2019-03-25T18:36:20.093Z,2.40
2019-03-25T18:39:23.662Z,7.30
2019-03-25T18:41:56.153Z,3.90
2019-03-25T18:44:29.651Z,3.30
2019-03-25T18:47:06.300Z,3.90
2019-03-25T18:49:38.193Z,2.43
2019-03-25T18:52:12.978Z,2.60
2019-03-25T18:54:52.699Z,3.13
2019-03-25T18:57:24.628Z,1.77
2019-03-25T19:00:26.422Z,2.20
2019-03-25T19:03:35.925Z,3.00
2019-03-25T19:21:12.865Z,2.20
2019-03-25T19:37:56.546Z,2.53
2019-03-25T19:40:27.192Z,2.13
2019-03-25T19:52:25.765Z,1.80
2019-03-25T19:58:52.538Z,2.00
2019-03-25T20:01:51.803Z,1.93
2019-03-25T20:04:27.058Z,1.70
2019-03-25T20:07:19.614Z,2.07
2019-03-25T20:10:07.145Z,2.00
2019-03-25T20:15:46.586Z,1.80
2019-03-25T20:18:57.787Z,1.67
2019-03-25T20:22:08.759Z,1.60
2019-03-25T20:24:40.179Z,1.70
2019-03-25T20:27:22.607Z,1.80
2019-03-25T20:30:13.923Z,1.50
2019-03-25T20:32:39.782Z,1.80
2019-03-25T20:35:11.047Z,1.90
2019-03-25T20:37:48.819Z,1.70
2019-03-25T20:40:27.549Z,1.50
2019-03-25T20:47:18.419Z,1.40
2019-03-25T20:54:06.486Z,2.10
2019-03-25T20:57:16.674Z,1.60
2019-03-25T21:04:04.902Z,1.90
2019-03-25T21:06:46.636Z,1.50
2019-03-25T21:09:17.696Z,2.10
2019-03-25T21:12:10.679Z,1.70
2019-03-25T21:22:57.972Z,2.20
2019-03-25T21:25:29.039Z,1.97
2019-03-25T21:28:00.806Z,2.27
2019-03-25T21:30:31.857Z,2.70
2019-03-25T21:33:47.126Z,2.70
2019-03-25T21:36:17.988Z,2.13
2019-03-25T21:38:50.564Z,2.07
2019-03-25T21:41:21.880Z,2.70
2019-03-25T21:44:24.987Z,2.67
2019-03-25T21:47:08.417Z,2.97
2019-03-25T21:58:01.276Z,3.27
2019-03-25T22:00:34.918Z,3.63
2019-03-25T22:03:15.320Z,3.00
2019-03-25T22:05:52.611Z,3.37
2019-03-25T22:09:05.149Z,3.90
2019-03-25T22:11:58.257Z,4.60
2019-03-25T22:14:48.307Z,5.20
2019-03-25T22:17:56.618Z,6.30
2019-03-25T22:23:07.730Z,6.07
2019-03-25T22:25:39.284Z,5.77
2019-03-25T22:28:10.120Z,6.10
2019-03-25T22:30:41.138Z,5.53
2019-03-25T22:33:25.174Z,5.50
2019-03-25T22:35:55.484Z,7.20
2019-03-25T22:38:26.786Z,6.00
2019-03-25T22:40:58.331Z,7.13
2019-03-25T22:43:28.983Z,6.87
2019-03-25T22:46:01.003Z,7.70
2019-03-25T22:48:32.807Z,7.10
2019-03-25T22:51:04.528Z,6.90
2019-03-25T22:53:38.501Z,7.30
2019-03-25T22:56:09.253Z,6.37
2019-03-25T22:58:40.524Z,6.60
2019-03-25T23:01:14.795Z,7.33
2019-03-25T23:03:52.793Z,7.53
2019-03-25T23:06:24.599Z,6.63
2019-03-25T23:09:07.399Z,5.80
2019-03-25T23:11:38.482Z,6.10
2019-03-25T23:14:13.623Z,6.37
2019-03-25T23:17:15.570Z,7.33
2019-03-25T23:19:46.472Z,7.20
2019-03-25T23:22:16.792Z,7.50
2019-03-25T23:24:46.822Z,7.00
2019-03-25T23:27:17.655Z,7.40
2019-03-25T23:29:58.493Z,7.70
2019-03-25T23:32:31.340Z,6.40
2019-03-25T23:35:03.773Z,7.83
2019-03-25T23:37:40.700Z,7.00
2019-03-25T23:40:12.105Z,7.17
2019-03-25T23:42:44.489Z,7.70
2019-03-25T23:45:18.549Z,6.93
2019-03-25T23:48:10.156Z,6.90
2019-03-25T23:50:44.848Z,7.50
2019-03-25T23:53:15.396Z,7.63
2019-03-25T23:55:46.258Z,8.27
2019-03-25T23:58:17.447Z,7.20
